createdAt,value
2022-08-25T12:23:44.638Z,101128.19
2022-08-25T12:26:30.066Z,101126.56
2022-08-25T12:29:10.066Z,101129.31
2022-08-25T12:31:55.622Z,101123.03
2022-08-25T12:50:43.618Z,101099.56
2022-08-25T12:53:18.581Z,101094.25
2022-08-25T12:55:54.962Z,101087.34
2022-08-25T12:58:38.624Z,101086.75
2022-08-25T13:01:36.105Z,101090.84
2022-08-25T13:04:31.316Z,101099.47
2022-08-25T13:07:26.263Z,101089.09
2022-08-25T13:10:16.381Z,101085.34
2022-08-25T13:12:53.792Z,101081.56
2022-08-25T13:15:40.149Z,101079.16
2022-08-25T13:18:23.236Z,101080.16
2022-08-25T13:20:57.521Z,101081.16
2022-08-25T13:23:32.728Z,101082.75
2022-08-25T13:26:03.199Z,101076.09
2022-08-25T13:28:36.304Z,101068.88
2022-08-25T13:31:10.361Z,101057.75
2022-08-25T13:33:40.583Z,101062.84
2022-08-25T13:36:32.496Z,101055.41
2022-08-25T13:39:18.218Z,101059.63
2022-08-25T13:42:07.287Z,101054.59
2022-08-25T13:44:51.624Z,101055.22
2022-08-25T13:47:44.994Z,101055.38
2022-08-25T13:50:26.353Z,101037.66
2022-08-25T13:53:00.651Z,101037.47
2022-08-25T13:55:50.783Z,101035.56
2022-08-25T13:58:38.859Z,101031.72
2022-08-25T14:01:22.964Z,101032.50
2022-08-25T14:04:34.985Z,101035.72
2022-08-25T14:07:34.247Z,101033.94
2022-08-25T14:10:07.888Z,101035.53
2022-08-25T14:12:49.756Z,101026.81
2022-08-25T14:15:33.994Z,101031.06
2022-08-25T14:18:07.403Z,101025.38
2022-08-25T14:20:41.722Z,101020.13
2022-08-25T14:23:16.303Z,101011.03
2022-08-25T14:25:49.229Z,101019.88
2022-08-25T14:28:26.474Z,101007.38
2022-08-25T14:30:59.347Z,101002.59
2022-08-25T14:33:33.576Z,100998.78
2022-08-25T14:36:06.103Z,101004.38
2022-08-25T14:38:38.941Z,101002.59
2022-08-25T14:41:12.328Z,100995.00
2022-08-25T14:43:45.397Z,100994.25
2022-08-25T14:46:21.406Z,100984.72
2022-08-25T14:48:55.551Z,100989.28
2022-08-25T14:51:27.139Z,100990.69
2022-08-25T14:54:00.835Z,100985.50
2022-08-25T14:56:31.039Z,100973.66
2022-08-25T14:59:04.821Z,100981.91
2022-08-25T15:01:35.166Z,100980.38
2022-08-25T15:04:09.143Z,100974.78
2022-08-25T15:06:39.757Z,100963.81
2022-08-25T15:09:13.053Z,100969.06
2022-08-25T15:11:48.303Z,100969.31
2022-08-25T15:14:28.888Z,100974.13
2022-08-25T15:17:04.846Z,100969.34
2022-08-25T15:19:37.540Z,100960.81
2022-08-25T15:22:07.949Z,100956.44
2022-08-25T15:24:42.107Z,100960.38
2022-08-25T15:27:12.345Z,100957.78
2022-08-25T15:29:44.779Z,100960.47
2022-08-25T15:32:15.930Z,100961.59
2022-08-25T15:34:47.952Z,100958.56
2022-08-25T15:37:19.008Z,100955.72
2022-08-25T15:39:49.362Z,100956.22
2022-08-25T15:42:19.786Z,100952.25
2022-08-25T15:44:53.872Z,100947.41
2022-08-25T15:47:24.345Z,100947.09
2022-08-25T15:50:05.012Z,100943.72
2022-08-25T15:52:46.291Z,100939.00
2022-08-25T15:55:18.195Z,100935.06
2022-08-25T15:57:50.557Z,100933.44
2022-08-25T16:00:23.080Z,100923.72
2022-08-25T16:02:53.634Z,100925.50
2022-08-25T16:05:25.923Z,100917.59
2022-08-25T16:07:56.480Z,100916.03
2022-08-25T16:10:27.481Z,100918.84
2022-08-25T16:12:57.858Z,100907.75
2022-08-25T16:15:30.939Z,100906.69
2022-08-25T16:18:02.868Z,100902.19
2022-08-25T16:20:37.121Z,100909.06
2022-08-25T16:23:08.322Z,100908.53
2022-08-25T16:25:42.111Z,100900.47
2022-08-25T16:28:14.102Z,100900.81
2022-08-25T16:30:52.771Z,100896.16
2022-08-25T16:33:23.950Z,100893.88
2022-08-25T16:35:55.632Z,100889.97
2022-08-25T16:38:26.035Z,100886.75
2022-08-25T16:40:56.165Z,100885.66
2022-08-25T16:43:27.614Z,100881.63
2022-08-25T16:46:05.714Z,100893.44
2022-08-25T16:48:38.217Z,100886.00
2022-08-25T16:51:11.135Z,100886.06
2022-08-25T16:53:54.779Z,100888.66
2022-08-25T16:56:44.943Z,100886.25
2022-08-25T16:59:16.566Z,100887.97
2022-08-25T17:01:56.223Z,100886.34
2022-08-25T17:04:32.183Z,100879.31
2022-08-25T17:07:03.136Z,100878.63
2022-08-25T17:09:36.213Z,100880.69
2022-08-25T17:12:09.230Z,100886.69
2022-08-25T17:14:40.004Z,100886.03
2022-08-25T17:17:12.997Z,100885.66
2022-08-25T17:19:46.129Z,100887.94
2022-08-25T17:22:19.239Z,100888.63
2022-08-25T17:24:59.308Z,100890.09
2022-08-25T17:27:31.181Z,100886.84
2022-08-25T17:30:01.290Z,100893.91
2022-08-25T17:32:33.891Z,100891.47
2022-08-25T17:35:04.916Z,100891.59
2022-08-25T17:37:36.066Z,100890.38
2022-08-25T17:40:07.341Z,100882.09
2022-08-25T17:42:41.047Z,100888.78
2022-08-25T17:45:11.649Z,100886.69
2022-08-25T17:47:44.060Z,100889.53
2022-08-25T17:50:14.445Z,100888.06
2022-08-25T17:52:44.366Z,100889.59
2022-08-25T17:55:14.566Z,100884.06
2022-08-25T17:58:09.299Z,100902.84
2022-08-25T18:00:47.053Z,100892.09
2022-08-25T18:03:20.297Z,100904.69
2022-08-25T18:05:52.252Z,100895.50
2022-08-25T18:08:32.034Z,100897.63
2022-08-25T18:11:08.555Z,100902.41
2022-08-25T18:13:41.597Z,100903.13
2022-08-25T18:16:12.958Z,100905.41
2022-08-25T18:18:45.743Z,100909.88
2022-08-25T18:21:17.944Z,100904.00
2022-08-25T18:23:49.473Z,100906.34
2022-08-25T18:26:21.964Z,100911.38
2022-08-25T18:28:55.816Z,100905.50
2022-08-25T18:31:26.263Z,100902.66
2022-08-25T18:33:59.172Z,100909.53
2022-08-25T18:36:28.983Z,100906.44
2022-08-25T18:39:13.688Z,100909.66
2022-08-25T18:41:45.419Z,100912.22
2022-08-25T18:44:15.974Z,100910.53
2022-08-25T18:46:46.244Z,100913.63
2022-08-25T18:49:19.940Z,100914.94
2022-08-25T18:51:50.892Z,100919.69
2022-08-25T18:54:23.398Z,100919.97
2022-08-25T18:56:54.914Z,100924.47
2022-08-25T18:59:25.283Z,100922.13
2022-08-25T19:01:57.297Z,100919.06
2022-08-25T19:04:32.478Z,100922.97
2022-08-25T19:07:03.503Z,100913.50
2022-08-25T19:09:34.164Z,100915.47
2022-08-25T19:12:05.447Z,100921.59
2022-08-25T19:14:35.502Z,100917.84
2022-08-25T19:17:05.717Z,100925.00
2022-08-25T19:19:38.536Z,100926.84
2022-08-25T19:22:37.978Z,100923.09
2022-08-25T19:24:59.288Z,100927.28
2022-08-25T19:27:29.596Z,100921.84
2022-08-25T19:30:00.277Z,100924.56
2022-08-25T19:32:32.474Z,100919.25
2022-08-25T19:35:04.974Z,100929.00
2022-08-25T19:37:36.641Z,100924.00
2022-08-25T19:40:10.602Z,100928.13
2022-08-25T19:42:41.560Z,100920.03
2022-08-25T19:45:14.396Z,100925.25
2022-08-25T19:47:44.450Z,100926.06
2022-08-25T19:50:17.914Z,100936.69
2022-08-25T19:52:49.917Z,100927.44
2022-08-25T19:55:20.956Z,100925.56
2022-08-25T19:57:51.545Z,100919.06
2022-08-25T20:00:24.022Z,100919.88
2022-08-25T20:02:54.434Z,100924.75
2022-08-25T20:05:27.179Z,100925.84
2022-08-25T20:07:58.860Z,100919.34
2022-08-25T20:10:31.689Z,100923.22
2022-08-25T20:13:02.940Z,100925.38
2022-08-25T20:15:34.531Z,100925.75
2022-08-25T20:18:10.187Z,100926.84
2022-08-25T20:20:42.783Z,100930.13
2022-08-25T20:23:25.709Z,100926.84
2022-08-25T20:25:57.731Z,100923.59
2022-08-25T20:28:27.909Z,100925.78
2022-08-25T20:30:57.814Z,100924.69
2022-08-25T20:33:28.049Z,100927.09
2022-08-25T20:36:02.190Z,100922.75
2022-08-25T20:38:33.002Z,100920.59
2022-08-25T20:41:03.488Z,100919.53
2022-08-25T20:43:33.665Z,100925.00
2022-08-25T20:46:03.997Z,100917.41
2022-08-25T20:48:35.105Z,100920.16
2022-08-25T20:51:11.207Z,100916.63
2022-08-25T20:53:44.686Z,100918.50
2022-08-25T20:56:17.541Z,100910.06
2022-08-25T20:58:48.591Z,100913.88
2022-08-25T21:01:23.300Z,100907.91
2022-08-25T21:03:53.720Z,100906.81
2022-08-25T21:06:26.260Z,100904.38
2022-08-25T21:08:56.611Z,100908.44
2022-08-25T21:11:29.946Z,100895.69
2022-08-25T21:14:01.721Z,100898.41
2022-08-25T21:16:39.052Z,100904.38
2022-08-25T21:19:12.362Z,100895.69
2022-08-25T21:21:45.562Z,100899.75
2022-08-25T21:24:16.756Z,100900.53
2022-08-25T21:26:50.523Z,100904.09
2022-08-25T21:29:23.011Z,100905.94
2022-08-25T21:31:54.706Z,100897.78
2022-08-25T21:34:25.132Z,100897.25
2022-08-25T21:37:01.493Z,100889.91
2022-08-25T21:39:33.120Z,100891.78
2022-08-25T21:42:03.531Z,100900.44
2022-08-25T21:44:33.958Z,100890.91
2022-08-25T21:47:04.122Z,100891.19
2022-08-25T21:49:37.237Z,100890.38
2022-08-25T21:52:10.717Z,100889.59
2022-08-25T21:54:40.853Z,100884.66
2022-08-25T21:57:11.599Z,100888.97
2022-08-25T21:59:43.677Z,100887.34
2022-08-25T22:02:21.880Z,100885.69
2022-08-25T22:04:54.658Z,100880.78
2022-08-25T22:07:29.157Z,100885.34
2022-08-25T22:10:05.144Z,100890.72
2022-08-25T22:12:36.321Z,100886.66
2022-08-25T22:15:07.961Z,100881.44
2022-08-25T22:17:42.838Z,100876.00
2022-08-25T22:20:15.777Z,100874.38
2022-08-25T22:22:48.680Z,100870.34
2022-08-25T22:25:18.821Z,100867.34
2022-08-25T22:27:56.400Z,100865.16
2022-08-25T22:30:27.671Z,100862.75
2022-08-25T22:33:01.573Z,100855.97
2022-08-25T22:35:35.656Z,100859.97
2022-08-25T22:38:12.413Z,100855.09
2022-08-25T22:40:42.980Z,100857.19
2022-08-25T22:43:13.161Z,100859.63
2022-08-25T22:45:43.092Z,100853.94
2022-08-25T22:48:14.283Z,100854.75
2022-08-25T22:50:44.549Z,100855.53
2022-08-25T22:53:17.123Z,100848.50
2022-08-25T22:55:47.261Z,100851.13
2022-08-25T22:58:22.220Z,100853.81
2022-08-25T23:00:52.813Z,100855.94
2022-08-25T23:03:22.971Z,100845.09
2022-08-25T23:05:53.362Z,100843.66
2022-08-25T23:08:39.370Z,100842.00
2022-08-25T23:11:13.031Z,100847.94
2022-08-25T23:13:43.840Z,100847.41
2022-08-25T23:16:15.545Z,100843.31
2022-08-25T23:18:47.262Z,100843.84
2022-08-25T23:21:38.217Z,100834.94
2022-08-25T23:24:30.056Z,100835.69
2022-08-25T23:27:03.933Z,100834.31
2022-08-25T23:29:35.600Z,100828.06
2022-08-25T23:32:07.824Z,100827.50
2022-08-25T23:34:43.187Z,100825.94
2022-08-25T23:37:19.047Z,100829.72
2022-08-25T23:39:52.198Z,100824.81
2022-08-25T23:42:23.014Z,100828.31
2022-08-25T23:44:53.682Z,100813.72
2022-08-25T23:47:24.813Z,100809.72
2022-08-25T23:49:55.885Z,100819.91
2022-08-25T23:52:26.453Z,100818.53
2022-08-25T23:54:59.544Z,100815.94
2022-08-25T23:57:31.337Z,100808.88
